createdAt,value
2022-08-27T00:01:23.275Z,17.10
2022-08-27T00:03:50.979Z,17.50
2022-08-27T00:06:21.099Z,18.45
2022-08-27T00:08:49.672Z,18.92
2022-08-27T00:11:19.633Z,17.63
2022-08-27T00:13:47.123Z,18.25
2022-08-27T00:16:16.307Z,18.15
2022-08-27T00:18:47.880Z,18.85
2022-08-27T00:21:16.842Z,19.27
2022-08-27T00:23:43.996Z,19.33
2022-08-27T00:26:12.160Z,18.58
2022-08-27T00:28:39.922Z,19.13
2022-08-27T00:31:08.074Z,18.15
2022-08-27T00:33:40.286Z,19.73
2022-08-27T00:36:08.523Z,19.40
2022-08-27T00:38:37.499Z,20.58
2022-08-27T00:41:09.928Z,18.38
2022-08-27T00:43:57.892Z,18.92
2022-08-27T00:46:28.278Z,18.60
2022-08-27T00:49:02.079Z,19.85
2022-08-27T00:51:30.572Z,18.88
2022-08-27T00:53:59.728Z,19.50
2022-08-27T00:56:31.993Z,19.30
2022-08-27T00:59:01.545Z,19.27
2022-08-27T01:01:31.412Z,20.73
2022-08-27T01:04:02.551Z,21.20
2022-08-27T01:06:35.393Z,18.67
2022-08-27T01:09:09.953Z,19.77
2022-08-27T01:11:38.864Z,20.42
2022-08-27T01:14:06.470Z,20.10
2022-08-27T01:16:45.004Z,19.83
2022-08-27T01:19:26.864Z,19.58
2022-08-27T01:22:05.738Z,19.55
2022-08-27T01:24:45.650Z,19.60
2022-08-27T01:27:18.685Z,18.45
2022-08-27T01:29:46.880Z,19.30
2022-08-27T01:32:28.125Z,18.40
2022-08-27T01:34:55.574Z,20.27
2022-08-27T01:37:24.329Z,18.00
2022-08-27T01:39:54.050Z,18.13
2022-08-27T01:42:31.283Z,18.70
2022-08-27T01:45:12.576Z,19.70
2022-08-27T01:47:59.525Z,18.90
2022-08-27T01:50:32.014Z,19.73
2022-08-27T01:53:04.966Z,18.45
2022-08-27T01:55:33.490Z,18.80
2022-08-27T01:58:00.733Z,18.35
2022-08-27T02:00:32.312Z,18.42
2022-08-27T02:03:00.578Z,20.20
2022-08-27T02:05:28.728Z,20.52
2022-08-27T02:07:56.388Z,20.95
2022-08-27T02:10:28.625Z,20.38
2022-08-27T02:12:56.048Z,19.27
2022-08-27T02:15:24.903Z,18.83
2022-08-27T02:17:52.765Z,19.63
2022-08-27T02:20:23.670Z,19.00
2022-08-27T02:22:55.263Z,20.30
2022-08-27T02:25:22.410Z,19.63
2022-08-27T02:27:50.901Z,20.42
2022-08-27T02:30:22.649Z,18.27
2022-08-27T02:32:52.278Z,20.15
2022-08-27T02:35:22.127Z,19.95
2022-08-27T02:37:53.027Z,19.10
2022-08-27T02:40:24.201Z,20.48
2022-08-27T02:42:52.015Z,21.15
2022-08-27T02:45:20.794Z,20.35
2022-08-27T02:47:54.028Z,19.42
2022-08-27T02:50:21.748Z,20.13
2022-08-27T02:53:04.352Z,21.60
2022-08-27T02:55:35.804Z,21.65
2022-08-27T02:58:29.434Z,22.20
2022-08-27T03:00:57.207Z,19.48
2022-08-27T03:03:24.143Z,20.88
2022-08-27T03:05:53.012Z,21.58
2022-08-27T03:08:20.115Z,22.42
2022-08-27T03:10:47.051Z,19.92
2022-08-27T03:13:13.961Z,21.15
2022-08-27T03:15:40.933Z,19.58
2022-08-27T03:18:20.001Z,21.27
2022-08-27T03:20:54.571Z,20.98
2022-08-27T03:23:25.145Z,19.98
2022-08-27T03:25:58.604Z,20.75
2022-08-27T03:28:30.270Z,20.08
2022-08-27T03:31:01.263Z,19.95
2022-08-27T03:33:31.081Z,19.67
2022-08-27T03:35:58.447Z,19.65
2022-08-27T03:38:26.223Z,19.52
2022-08-27T03:40:53.844Z,20.20
2022-08-27T03:43:21.856Z,20.15
2022-08-27T03:46:00.792Z,19.05
2022-08-27T03:48:30.833Z,19.50
2022-08-27T03:50:58.278Z,20.73
2022-08-27T03:53:26.109Z,19.63
2022-08-27T03:55:53.230Z,19.15
2022-08-27T03:58:20.254Z,19.10
2022-08-27T04:00:47.414Z,20.80
2022-08-27T04:03:15.108Z,19.67
2022-08-27T04:05:44.753Z,19.10
2022-08-27T04:08:13.459Z,18.38
2022-08-27T04:10:42.036Z,18.48
2022-08-27T04:13:08.961Z,17.55
2022-08-27T04:15:40.514Z,17.77
2022-08-27T04:18:10.158Z,18.27
2022-08-27T04:20:37.243Z,18.15
2022-08-27T04:23:05.274Z,19.70
2022-08-27T04:25:32.698Z,19.10
2022-08-27T04:28:01.810Z,19.20
2022-08-27T04:30:28.948Z,17.63
2022-08-27T04:32:55.869Z,19.13
2022-08-27T04:35:23.130Z,19.88
2022-08-27T04:37:50.256Z,19.02
2022-08-27T04:40:17.628Z,18.25
2022-08-27T04:42:44.936Z,20.23
2022-08-27T04:45:12.030Z,18.35
2022-08-27T04:47:39.151Z,18.20
2022-08-27T04:50:07.132Z,17.33
2022-08-27T04:52:40.956Z,19.02
2022-08-27T04:55:09.139Z,18.80
2022-08-27T04:57:37.998Z,19.10
2022-08-27T05:00:07.326Z,18.25
2022-08-27T05:02:34.538Z,18.35
2022-08-27T05:05:01.492Z,18.40
2022-08-27T05:07:28.554Z,18.77
2022-08-27T05:09:55.526Z,19.10
2022-08-27T05:12:23.151Z,18.42
2022-08-27T05:14:50.105Z,17.10
2022-08-27T05:17:17.166Z,18.83
2022-08-27T05:19:44.057Z,18.20
2022-08-27T05:22:10.951Z,18.23
2022-08-27T05:24:37.995Z,16.08
2022-08-27T05:27:05.370Z,17.23
2022-08-27T05:29:32.392Z,16.27
2022-08-27T05:31:59.418Z,18.40
2022-08-27T05:34:26.919Z,16.70
2022-08-27T05:36:54.579Z,17.48
2022-08-27T05:39:21.725Z,16.95
2022-08-27T05:41:48.744Z,16.33
2022-08-27T05:44:40.522Z,16.52
2022-08-27T05:47:04.710Z,16.25
2022-08-27T05:49:32.679Z,17.00
2022-08-27T05:51:59.598Z,17.63
2022-08-27T05:54:26.852Z,16.85
2022-08-27T05:56:53.979Z,16.42
2022-08-27T05:59:39.274Z,16.02
2022-08-27T06:02:07.013Z,16.63
2022-08-27T06:04:34.707Z,16.45
2022-08-27T06:07:01.845Z,14.45
2022-08-27T06:09:30.281Z,15.43
2022-08-27T06:11:58.952Z,15.98
2022-08-27T06:14:26.798Z,14.48
2022-08-27T06:16:53.914Z,15.93
2022-08-27T06:19:21.118Z,16.48
2022-08-27T06:22:00.873Z,15.23
2022-08-27T06:24:36.359Z,15.48
2022-08-27T06:27:03.512Z,14.90
2022-08-27T06:29:30.605Z,15.23
2022-08-27T06:31:57.627Z,15.82
2022-08-27T06:34:24.774Z,15.80
2022-08-27T06:36:53.349Z,15.23
2022-08-27T06:39:21.618Z,15.93
2022-08-27T06:41:50.284Z,14.00
2022-08-27T06:44:21.483Z,16.27
2022-08-27T06:46:48.492Z,14.88
2022-08-27T06:49:15.540Z,14.90
2022-08-27T06:51:46.832Z,14.25
2022-08-27T06:54:15.490Z,14.73
2022-08-27T06:56:44.545Z,14.60
2022-08-27T06:59:16.774Z,13.63
2022-08-27T07:01:47.312Z,13.80
2022-08-27T07:06:45.482Z,13.60
2022-08-27T07:09:12.502Z,14.05
2022-08-27T07:11:39.731Z,12.07
2022-08-27T07:14:08.485Z,12.10
2022-08-27T07:16:36.311Z,12.95
2022-08-27T07:19:05.529Z,11.93
2022-08-27T07:21:34.774Z,12.07
2022-08-27T07:24:05.038Z,11.52
2022-08-27T07:26:35.340Z,12.32
2022-08-27T07:29:04.861Z,11.88
2022-08-27T07:31:32.397Z,11.57
2022-08-27T07:33:59.370Z,11.13
2022-08-27T07:36:26.727Z,10.32
2022-08-27T07:39:00.697Z,10.85
2022-08-27T07:41:31.878Z,10.95
2022-08-27T07:44:19.104Z,11.55
2022-08-27T07:46:48.965Z,9.82
2022-08-27T07:49:19.972Z,9.32
2022-08-27T07:51:47.784Z,9.60
2022-08-27T07:54:15.661Z,9.35
2022-08-27T07:56:54.614Z,10.30
2022-08-27T07:59:27.370Z,8.82
2022-08-27T08:01:56.390Z,8.45
2022-08-27T08:04:24.361Z,8.50
2022-08-27T08:06:51.701Z,8.80
2022-08-27T08:09:20.238Z,8.70
2022-08-27T08:11:47.226Z,8.35
2022-08-27T08:14:14.279Z,8.18
2022-08-27T08:16:41.468Z,8.90
2022-08-27T08:19:09.333Z,8.40
2022-08-27T08:21:36.807Z,8.35
2022-08-27T08:24:04.408Z,8.48
2022-08-27T08:26:31.610Z,9.05
2022-08-27T08:29:00.728Z,8.68
2022-08-27T08:31:27.705Z,8.15
2022-08-27T08:33:55.036Z,8.63
2022-08-27T08:36:21.947Z,8.52
2022-08-27T08:38:50.532Z,9.13
2022-08-27T08:41:41.601Z,10.20
2022-08-27T08:44:16.706Z,9.00
2022-08-27T08:46:54.469Z,8.43
2022-08-27T08:49:54.970Z,8.90
2022-08-27T08:52:54.576Z,9.05
2022-08-27T08:55:43.051Z,8.70
2022-08-27T08:58:36.416Z,8.60
2022-08-27T09:01:07.327Z,8.55
2022-08-27T09:03:40.821Z,8.63
2022-08-27T09:06:14.500Z,7.93
2022-08-27T09:08:43.491Z,9.20
2022-08-27T09:11:43.316Z,14.20
2022-08-27T09:14:46.379Z,10.77
2022-08-27T09:17:13.866Z,6.82
2022-08-27T09:19:41.689Z,6.32
2022-08-27T09:22:14.458Z,17.58
2022-08-27T09:24:47.023Z,14.80
2022-08-27T09:27:15.179Z,30.92
2022-08-27T09:29:53.911Z,15.65
2022-08-27T09:32:31.506Z,20.38
2022-08-27T09:35:01.516Z,22.98
2022-08-27T09:37:34.552Z,24.65
2022-08-27T09:40:42.765Z,24.15
2022-08-27T09:43:16.037Z,22.65
2022-08-27T09:45:52.894Z,17.45
2022-08-27T09:48:25.705Z,19.15
2022-08-27T09:50:59.970Z,18.67
2022-08-27T09:53:35.605Z,15.43
2022-08-27T09:56:04.276Z,16.13
2022-08-27T09:58:42.651Z,14.65
2022-08-27T10:01:27.336Z,18.02
2022-08-27T10:04:13.525Z,15.30
2022-08-27T10:06:48.772Z,16.73
2022-08-27T10:09:35.505Z,12.23
2022-08-27T10:12:34.724Z,15.15
2022-08-27T10:15:05.533Z,11.93
2022-08-27T10:17:53.176Z,17.45
2022-08-27T10:20:30.251Z,13.25
2022-08-27T10:23:10.233Z,11.88
2022-08-27T10:25:40.888Z,8.98
2022-08-27T10:28:44.671Z,13.70
2022-08-27T10:31:27.183Z,8.35
2022-08-27T10:34:45.226Z,8.77
2022-08-27T10:37:47.495Z,9.20
2022-08-27T10:40:34.567Z,9.40
2022-08-27T10:43:20.274Z,16.20
2022-08-27T10:45:56.195Z,11.30
2022-08-27T10:48:40.037Z,14.43
2022-08-27T10:51:37.678Z,9.20
2022-08-27T10:54:27.389Z,13.88
2022-08-27T10:57:28.540Z,12.55
2022-08-27T11:00:16.395Z,14.73
2022-08-27T11:02:56.744Z,9.23
2022-08-27T11:05:31.523Z,9.23
2022-08-27T11:08:03.490Z,12.25
2022-08-27T11:10:34.123Z,13.88
2022-08-27T11:13:13.355Z,11.68
2022-08-27T11:15:44.728Z,14.82
2022-08-27T11:18:35.455Z,11.13
2022-08-27T11:21:34.606Z,11.45
2022-08-27T11:24:23.336Z,11.98
2022-08-27T11:26:55.813Z,12.60
2022-08-27T11:29:30.589Z,12.40
2022-08-27T11:32:09.938Z,10.68
2022-08-27T11:34:57.107Z,12.52
2022-08-27T11:37:45.501Z,13.45
2022-08-27T11:40:44.640Z,17.42
2022-08-27T11:43:16.528Z,15.88
2022-08-27T11:45:59.310Z,16.08
2022-08-27T11:48:41.988Z,12.70
2022-08-27T11:51:15.996Z,11.88
2022-08-27T11:53:59.311Z,19.90
2022-08-27T11:56:29.132Z,28.48
2022-08-27T11:59:08.059Z,22.52
2022-08-27T12:01:35.147Z,13.55
2022-08-27T12:04:19.318Z,35.15
2022-08-27T12:07:01.491Z,28.60
2022-08-27T12:09:42.851Z,21.20
2022-08-27T12:12:30.141Z,51.28
2022-08-27T12:15:31.305Z,22.00
2022-08-27T12:18:34.051Z,38.85
2022-08-27T12:21:21.197Z,33.30
2022-08-27T12:24:19.657Z,33.72
2022-08-27T12:27:13.374Z,44.63
2022-08-27T12:30:07.017Z,48.45
2022-08-27T12:32:36.655Z,41.30
2022-08-27T12:35:19.250Z,50.08
2022-08-27T12:38:14.737Z,43.92
2022-08-27T12:40:46.381Z,45.60
2022-08-27T12:43:24.770Z,49.40
2022-08-27T12:46:08.524Z,65.35
2022-08-27T12:48:45.124Z,68.50
2022-08-27T12:51:25.864Z,43.22
2022-08-27T12:54:30.177Z,66.68
2022-08-27T12:57:22.333Z,62.60
2022-08-27T13:00:10.169Z,60.22
2022-08-27T13:03:07.834Z,44.60
2022-08-27T13:05:44.259Z,44.47
2022-08-27T13:08:20.307Z,111.07
2022-08-27T13:10:47.734Z,258.33
2022-08-27T13:13:24.038Z,312.27
2022-08-27T13:15:58.633Z,682.85
2022-08-27T13:18:30.077Z,731.70
2022-08-27T13:21:09.037Z,808.33
2022-08-27T13:23:36.010Z,831.78
2022-08-27T13:26:11.883Z,827.45
2022-08-27T13:28:48.851Z,657.15
2022-08-27T13:31:17.645Z,506.45
2022-08-27T13:33:44.994Z,414.90
2022-08-27T13:36:12.394Z,233.63
2022-08-27T13:38:49.900Z,178.82
2022-08-27T13:41:37.714Z,159.43
2022-08-27T13:44:15.132Z,196.15
2022-08-27T13:47:00.091Z,243.02
2022-08-27T13:49:31.098Z,313.45
2022-08-27T13:52:13.802Z,356.58
2022-08-27T13:54:46.327Z,275.52
2022-08-27T13:57:30.343Z,230.60
2022-08-27T14:00:16.268Z,78.22
2022-08-27T14:02:55.488Z,104.97
2022-08-27T14:07:54.447Z,84.57
2022-08-27T14:10:40.867Z,82.68
2022-08-27T14:13:20.965Z,85.22
2022-08-27T14:15:50.767Z,64.93
2022-08-27T14:18:57.278Z,95.20
2022-08-27T14:21:19.128Z,75.63
2022-08-27T14:23:46.306Z,70.90
2022-08-27T14:26:13.980Z,115.70
2022-08-27T14:28:42.642Z,112.85
2022-08-27T14:31:09.786Z,208.95
2022-08-27T14:33:36.923Z,240.18
2022-08-27T14:36:04.714Z,251.57
2022-08-27T14:38:33.930Z,349.75
2022-08-27T14:41:01.037Z,428.40
2022-08-27T14:43:28.073Z,323.13
2022-08-27T14:45:57.189Z,179.27
2022-08-27T14:48:32.175Z,212.93
2022-08-27T14:51:02.279Z,351.35
2022-08-27T14:53:29.604Z,287.52
2022-08-27T14:55:58.970Z,204.82
2022-08-27T14:58:27.346Z,207.33
2022-08-27T15:00:56.481Z,224.48
2022-08-27T15:03:26.365Z,145.93
2022-08-27T15:05:55.059Z,131.23
2022-08-27T15:08:27.681Z,107.65
2022-08-27T15:10:57.990Z,121.93
2022-08-27T15:13:25.605Z,137.35
2022-08-27T15:15:52.845Z,197.02
2022-08-27T15:18:39.891Z,90.82
2022-08-27T15:21:07.208Z,114.45
2022-08-27T15:23:34.319Z,109.18
2022-08-27T15:26:01.345Z,93.53
2022-08-27T15:28:28.530Z,94.15
2022-08-27T15:30:55.624Z,77.53
2022-08-27T15:33:23.197Z,91.85
2022-08-27T15:35:50.410Z,42.55
2022-08-27T15:38:17.415Z,41.28
2022-08-27T15:40:44.598Z,42.65
2022-08-27T15:43:12.840Z,42.05
2022-08-27T15:45:39.888Z,45.67
2022-08-27T15:48:07.275Z,52.45
2022-08-27T15:50:34.967Z,46.42
2022-08-27T15:53:07.045Z,42.97
2022-08-27T15:55:38.772Z,38.78
2022-08-27T15:58:07.076Z,39.70
2022-08-27T16:00:35.921Z,33.30
2022-08-27T16:03:08.252Z,34.58
2022-08-27T16:05:38.232Z,27.52
2022-08-27T16:08:06.566Z,36.85
2022-08-27T16:10:34.301Z,54.90
2022-08-27T16:13:02.011Z,31.10
2022-08-27T16:15:29.674Z,32.47
2022-08-27T16:17:59.769Z,13.82
2022-08-27T16:20:29.014Z,10.07
2022-08-27T16:22:56.138Z,10.68
